Time;durP1;ratioP1;P1;durP2;ratioP2;P2;SDS_P1;SDS_P2;PMS_P1;PMS_P2;Temp;Humidity;BMP_temperature;BMP_pressure;BME280_temperature;BME280_humidity;BME280_pressure;Samples;Min_cycle;Max_cycle;Signal;HPM_P1;HPM_P2
2021/09/28 00:00:10;;;;;;;20.00;5.88;;;12.60;99.90;;;;;;4973388;28;20428;-77
2021/09/28 00:02:36;;;;;;;21.03;6.60;;;12.50;99.90;;;;;;4973749;28;20412;-76
2021/09/28 00:05:02;;;;;;;23.67;6.63;;;12.60;99.90;;;;;;4971422;28;20400;-77
2021/09/28 00:07:28;;;;;;;18.02;6.82;;;12.50;99.90;;;;;;4975191;28;20411;-79
2021/09/28 00:09:54;;;;;;;16.70;6.97;;;12.50;99.90;;;;;;4975067;28;20396;-77
2021/09/28 00:12:20;;;;;;;20.25;6.78;;;12.40;99.90;;;;;;4974689;28;20415;-77
2021/09/28 00:14:45;;;;;;;13.80;7.35;;;12.40;99.90;;;;;;4974486;28;20801;-76
2021/09/28 00:17:12;;;;;;;17.73;6.57;;;12.30;99.90;;;;;;4976627;28;20455;-76
2021/09/28 00:19:38;;;;;;;17.63;7.00;;;12.30;99.90;;;;;;4981759;28;20399;-77
2021/09/28 00:22:04;;;;;;;21.35;7.60;;;12.30;99.90;;;;;;4978046;28;20479;-77
2021/09/28 00:24:30;;;;;;;23.80;7.70;;;12.40;99.90;;;;;;4973238;28;20388;-78
2021/09/28 00:26:56;;;;;;;16.63;6.88;;;12.30;99.90;;;;;;4972728;28;20407;-78
2021/09/28 00:29:21;;;;;;;21.13;6.13;;;12.30;99.90;;;;;;4974644;28;20396;-76
2021/09/28 00:31:47;;;;;;;22.50;7.70;;;12.30;99.90;;;;;;4974245;28;20430;-78
2021/09/28 00:34:12;;;;;;;24.60;6.70;;;12.30;99.90;;;;;;4974663;28;20490;-78
2021/09/28 00:36:38;;;;;;;20.03;7.03;;;12.20;99.90;;;;;;4974477;28;20764;-77
2021/09/28 00:39:04;;;;;;;18.13;7.20;;;12.10;99.90;;;;;;4957367;28;20875;-76
2021/09/28 00:41:29;;;;;;;18.80;6.70;;;12.10;99.90;;;;;;4953726;28;20466;-77
2021/09/28 00:43:55;;;;;;;18.43;6.93;;;12.10;99.90;;;;;;4960083;28;20414;-77
2021/09/28 00:46:22;;;;;;;17.02;6.32;;;12.00;99.90;;;;;;4972467;28;20419;-76
2021/09/28 00:48:48;;;;;;;19.63;6.43;;;11.90;99.90;;;;;;4976630;28;20778;-78
2021/09/28 00:51:15;;;;;;;16.67;6.50;;;12.00;99.90;;;;;;4987172;28;20416;-77
2021/09/28 00:53:42;;;;;;;15.48;6.68;;;12.00;99.90;;;;;;4971618;28;20445;-78
2021/09/28 00:56:10;;;;;;;21.25;6.70;;;11.90;99.90;;;;;;4969268;28;20410;-78
2021/09/28 00:58:36;;;;;;;21.88;7.50;;;11.90;99.90;;;;;;4980065;28;20412;-78
2021/09/28 01:01:03;;;;;;;17.23;6.20;;;11.80;99.90;;;;;;4971113;28;20397;-77
2021/09/28 01:03:31;;;;;;;24.20;7.70;;;11.80;99.90;;;;;;4960546;28;20918;-77
2021/09/28 01:05:57;;;;;;;16.20;6.82;;;11.70;99.90;;;;;;4984336;28;20384;-76
2021/09/28 01:08:22;;;;;;;23.83;7.63;;;11.70;99.90;;;;;;4995376;28;20404;-76
2021/09/28 01:10:48;;;;;;;19.05;7.80;;;11.70;99.90;;;;;;4992292;28;20392;-76
2021/09/28 01:13:14;;;;;;;19.85;7.25;;;11.70;99.90;;;;;;4980788;28;20419;-77
2021/09/28 01:16:05;;;;;;;23.08;7.88;;;11.60;99.90;;;;;;4957976;28;20402;-77
2021/09/28 01:18:33;;;;;;;20.40;7.10;;;11.60;99.90;;;;;;4965414;28;20474;-76
2021/09/28 01:20:59;;;;;;;24.85;8.18;;;11.60;99.90;;;;;;4975471;28;20392;-77
2021/09/28 01:23:25;;;;;;;21.20;8.18;;;11.70;99.90;;;;;;4974293;28;20846;-76
2021/09/28 01:25:51;;;;;;;19.25;7.68;;;11.70;99.90;;;;;;4978570;28;20432;-77
2021/09/28 01:28:17;;;;;;;19.80;7.65;;;11.70;99.90;;;;;;4981327;28;20416;-77
2021/09/28 01:30:42;;;;;;;28.55;10.35;;;11.60;99.90;;;;;;4982493;28;20388;-78
2021/09/28 01:33:08;;;;;;;23.90;8.20;;;11.60;99.90;;;;;;4975862;28;20444;-76
2021/09/28 01:35:37;;;;;;;18.60;8.50;;;11.60;99.90;;;;;;4978999;28;20428;-75
2021/09/28 01:38:04;;;;;;;18.17;7.80;;;11.60;99.90;;;;;;4977970;28;20675;-78
2021/09/28 01:40:30;;;;;;;18.70;8.00;;;11.60;99.90;;;;;;4985690;28;20423;-75
2021/09/28 01:42:55;;;;;;;22.73;8.45;;;11.50;99.90;;;;;;4984149;28;20418;-77
2021/09/28 01:45:21;;;;;;;17.10;7.80;;;11.50;99.90;;;;;;4982950;28;20405;-78
2021/09/28 01:47:46;;;;;;;22.27;8.70;;;11.40;99.90;;;;;;4984966;28;20443;-77
2021/09/28 01:50:12;;;;;;;25.90;8.57;;;11.40;99.90;;;;;;4985677;28;20392;-78
2021/09/28 01:52:38;;;;;;;27.63;8.45;;;11.40;99.90;;;;;;4977668;28;20439;-76
2021/09/28 01:55:06;;;;;;;20.77;7.95;;;11.40;99.90;;;;;;4975563;28;20400;-77
2021/09/28 01:57:33;;;;;;;19.30;7.85;;;11.40;99.90;;;;;;4993518;28;20390;-76
2021/09/28 01:59:59;;;;;;;19.05;7.60;;;11.40;99.90;;;;;;4990982;28;20912;-77
2021/09/28 02:02:25;;;;;;;23.27;7.60;;;11.40;99.90;;;;;;4979730;28;20809;-77
2021/09/28 02:04:51;;;;;;;18.25;8.10;;;11.40;99.90;;;;;;4979678;28;20392;-76
2021/09/28 02:07:16;;;;;;;27.95;8.73;;;11.50;99.90;;;;;;4975288;28;20403;-78
2021/09/28 02:09:42;;;;;;;19.27;8.30;;;11.40;99.90;;;;;;4976398;28;20893;-77
2021/09/28 02:12:08;;;;;;;19.93;8.00;;;11.50;99.90;;;;;;4980986;28;20501;-76
2021/09/28 02:14:33;;;;;;;18.17;7.70;;;11.40;99.90;;;;;;4985990;28;20392;-77
2021/09/28 02:16:59;;;;;;;23.92;8.50;;;11.40;99.90;;;;;;4978983;28;20381;-76
2021/09/28 02:19:24;;;;;;;27.15;8.40;;;11.40;99.90;;;;;;4973698;28;20395;-77
2021/09/28 02:21:50;;;;;;;26.60;8.90;;;11.40;99.90;;;;;;4973502;28;20530;-77
2021/09/28 02:24:16;;;;;;;22.33;8.57;;;11.40;99.90;;;;;;4954244;28;20404;-77
2021/09/28 02:26:43;;;;;;;18.73;7.50;;;11.30;99.90;;;;;;4954569;28;20921;-75
2021/09/28 02:29:10;;;;;;;26.60;8.10;;;11.30;99.90;;;;;;4966694;28;20422;-76
2021/09/28 02:31:35;;;;;;;24.60;7.75;;;11.30;99.90;;;;;;4972160;28;20766;-77
2021/09/28 02:34:06;;;;;;;25.92;8.40;;;11.40;99.90;;;;;;4961502;28;20402;-77
2021/09/28 02:36:32;;;;;;;23.17;8.20;;;11.40;99.90;;;;;;4971082;28;20419;-77
2021/09/28 02:38:58;;;;;;;26.58;8.73;;;11.40;99.90;;;;;;4973345;28;20385;-77
2021/09/28 02:41:24;;;;;;;21.83;7.40;;;11.40;99.90;;;;;;4973985;28;20989;-75
2021/09/28 02:43:50;;;;;;;14.40;7.30;;;11.40;99.90;;;;;;4973366;28;20384;-76
2021/09/28 02:46:15;;;;;;;20.52;7.50;;;11.30;99.90;;;;;;4973126;28;20380;-76
2021/09/28 02:48:41;;;;;;;21.03;7.70;;;11.40;99.90;;;;;;4970680;28;20440;-77
2021/09/28 02:51:06;;;;;;;19.00;7.40;;;11.40;99.90;;;;;;4973182;28;20892;-76
2021/09/28 02:53:32;;;;;;;19.75;8.88;;;11.40;99.90;;;;;;4972909;28;20416;-77
2021/09/28 02:55:57;;;;;;;23.20;7.82;;;11.30;99.90;;;;;;4977840;28;20935;-78
2021/09/28 02:58:23;;;;;;;21.88;8.32;;;11.30;99.90;;;;;;4988504;28;20404;-76
2021/09/28 03:00:49;;;;;;;23.50;7.65;;;11.30;99.90;;;;;;4972989;28;20400;-77
2021/09/28 03:03:14;;;;;;;18.85;7.90;;;11.30;99.90;;;;;;4972678;28;20384;-77
2021/09/28 03:05:40;;;;;;;26.43;7.30;;;11.30;99.90;;;;;;4972862;28;20392;-77
2021/09/28 03:08:05;;;;;;;22.37;8.27;;;11.30;99.90;;;;;;4973360;28;20396;-77
2021/09/28 03:10:31;;;;;;;17.97;6.77;;;11.30;99.90;;;;;;4971578;28;20396;-77
2021/09/28 03:12:56;;;;;;;19.07;7.90;;;11.20;99.90;;;;;;4972162;28;20770;-77
2021/09/28 03:15:22;;;;;;;22.30;8.70;;;11.20;99.90;;;;;;4972580;28;21270;-77
2021/09/28 03:17:48;;;;;;;22.23;7.50;;;11.30;99.90;;;;;;4972743;28;20380;-76
2021/09/28 03:20:13;;;;;;;26.20;7.83;;;11.30;99.90;;;;;;4970535;28;20479;-77
2021/09/28 03:22:39;;;;;;;21.80;7.40;;;11.20;99.90;;;;;;4972660;28;20396;-75
2021/09/28 03:25:05;;;;;;;23.07;7.60;;;11.20;99.90;;;;;;4972263;28;20392;-77
2021/09/28 03:27:31;;;;;;;20.00;7.75;;;11.10;99.90;;;;;;4971098;28;20396;-77
2021/09/28 03:29:56;;;;;;;26.35;7.43;;;11.10;99.90;;;;;;4971371;28;20392;-76
2021/09/28 03:32:22;;;;;;;23.00;7.75;;;11.10;99.90;;;;;;4972153;28;20989;-76
2021/09/28 03:34:47;;;;;;;14.43;7.38;;;11.10;99.90;;;;;;4958538;28;20911;-76
2021/09/28 03:37:13;;;;;;;18.38;7.80;;;11.10;99.90;;;;;;4953149;28;20394;-76
2021/09/28 03:39:39;;;;;;;21.03;7.57;;;11.00;99.90;;;;;;4953096;28;20394;-76
2021/09/28 03:42:04;;;;;;;20.23;7.70;;;11.00;99.90;;;;;;4958198;28;20627;-77
2021/09/28 03:44:30;;;;;;;18.55;8.10;;;11.00;99.90;;;;;;4955056;28;20404;-76
2021/09/28 03:46:55;;;;;;;30.20;8.98;;;11.00;99.90;;;;;;4972350;28;20447;-78
2021/09/28 03:49:21;;;;;;;23.90;7.70;;;11.00;99.90;;;;;;4972415;28;20420;-76
2021/09/28 03:51:47;;;;;;;21.70;7.80;;;11.00;99.90;;;;;;4972126;28;20777;-76
2021/09/28 03:54:12;;;;;;;18.70;7.87;;;11.00;99.90;;;;;;4972267;28;20438;-76
2021/09/28 03:56:38;;;;;;;23.30;9.30;;;11.00;99.90;;;;;;4972056;28;20404;-76
2021/09/28 03:59:03;;;;;;;18.37;8.00;;;11.00;99.90;;;;;;4972527;28;20403;-76
2021/09/28 04:01:29;;;;;;;22.83;7.77;;;11.00;99.90;;;;;;4970628;28;20917;-78
2021/09/28 04:03:55;;;;;;;19.93;7.60;;;11.10;99.90;;;;;;4972340;28;20395;-76
2021/09/28 04:06:20;;;;;;;26.80;8.30;;;11.10;99.90;;;;;;4972315;28;20407;-76
2021/09/28 04:08:46;;;;;;;23.90;9.17;;;11.10;99.90;;;;;;4971954;28;20398;-78
2021/09/28 04:11:11;;;;;;;31.50;8.85;;;11.10;99.90;;;;;;4971609;28;20412;-77
2021/09/28 04:13:41;;;;;;;20.80;8.52;;;11.10;99.90;;;;;;4971960;28;20380;-77
2021/09/28 04:16:08;;;;;;;22.38;7.20;;;11.10;99.90;;;;;;4963515;28;20398;-78
2021/09/28 04:18:34;;;;;;;25.73;8.00;;;11.00;99.90;;;;;;4951608;28;20437;-78
2021/09/28 04:21:00;;;;;;;27.17;8.32;;;11.00;99.90;;;;;;4952112;29;20401;-77
2021/09/28 04:23:26;;;;;;;21.88;8.15;;;11.00;99.90;;;;;;4955060;28;20393;-78
2021/09/28 04:25:52;;;;;;;16.10;7.27;;;11.00;99.90;;;;;;4971803;28;20885;-77
2021/09/28 04:28:18;;;;;;;20.23;7.88;;;11.00;99.90;;;;;;4970878;28;20484;-78
2021/09/28 04:30:43;;;;;;;20.67;7.55;;;11.00;99.90;;;;;;4960103;28;20808;-77
2021/09/28 04:33:09;;;;;;;16.27;6.60;;;11.00;99.90;;;;;;4952422;28;20976;-76
2021/09/28 04:35:35;;;;;;;21.50;6.75;;;11.10;99.90;;;;;;4954041;28;20444;-77
2021/09/28 04:38:01;;;;;;;20.60;7.37;;;11.00;99.90;;;;;;4963397;28;20925;-75
2021/09/28 04:40:26;;;;;;;22.50;6.63;;;11.00;99.90;;;;;;4975820;28;20427;-76
2021/09/28 04:42:52;;;;;;;17.03;6.63;;;11.00;99.90;;;;;;4975365;28;20890;-76
2021/09/28 04:45:18;;;;;;;21.42;7.10;;;11.00;99.90;;;;;;4974952;28;20873;-76
2021/09/28 04:47:44;;;;;;;23.08;7.13;;;11.00;99.90;;;;;;4975664;28;20392;-77
2021/09/28 04:50:10;;;;;;;21.85;6.80;;;10.90;99.90;;;;;;4975464;28;20777;-77
2021/09/28 04:52:36;;;;;;;18.40;7.50;;;10.90;99.90;;;;;;4976351;28;20419;-76
2021/09/28 04:55:03;;;;;;;25.80;7.40;;;10.90;99.90;;;;;;4975359;28;20392;-75
2021/09/28 04:57:30;;;;;;;18.02;6.97;;;10.90;99.90;;;;;;4991386;28;20391;-76
2021/09/28 04:59:55;;;;;;;19.92;7.40;;;10.80;99.90;;;;;;4977367;28;20880;-75
2021/09/28 05:02:21;;;;;;;20.73;7.10;;;10.80;99.90;;;;;;4992225;28;20403;-74
2021/09/28 05:04:46;;;;;;;22.10;7.30;;;10.70;99.90;;;;;;4981738;28;20454;-76
2021/09/28 05:07:12;;;;;;;16.27;7.60;;;10.70;99.90;;;;;;4975248;28;20407;-77
2021/09/28 05:09:38;;;;;;;26.37;8.07;;;10.70;99.90;;;;;;4974053;28;20407;-76
2021/09/28 05:12:06;;;;;;;24.65;8.00;;;10.70;99.90;;;;;;4974214;28;20422;-77
2021/09/28 05:14:32;;;;;;;15.63;7.28;;;10.70;99.90;;;;;;4974984;28;20479;-76
2021/09/28 05:16:58;;;;;;;16.75;7.53;;;10.70;99.90;;;;;;4976661;28;20384;-78
2021/09/28 05:19:24;;;;;;;18.92;7.70;;;10.70;99.90;;;;;;4975714;28;20487;-77
2021/09/28 05:21:49;;;;;;;22.02;8.20;;;10.70;99.90;;;;;;4975022;28;20870;-76
2021/09/28 05:24:15;;;;;;;28.33;7.70;;;10.70;99.90;;;;;;4975415;28;20388;-76
2021/09/28 05:26:41;;;;;;;21.93;7.67;;;10.70;99.90;;;;;;4973443;28;20444;-77
2021/09/28 05:29:06;;;;;;;18.47;8.43;;;10.70;99.90;;;;;;4973149;28;20497;-78
2021/09/28 05:31:32;;;;;;;26.00;8.43;;;10.70;99.90;;;;;;4956806;28;20605;-75
2021/09/28 05:33:58;;;;;;;25.77;8.83;;;10.80;99.90;;;;;;4965306;28;20420;-77
2021/09/28 05:36:24;;;;;;;22.95;8.50;;;10.70;99.90;;;;;;4974659;28;20396;-77
2021/09/28 05:38:49;;;;;;;20.45;7.90;;;10.70;99.90;;;;;;4974893;28;20555;-75
2021/09/28 05:41:15;;;;;;;30.08;8.20;;;10.70;99.90;;;;;;4971205;28;20412;-74
2021/09/28 05:43:41;;;;;;;28.75;7.80;;;10.80;99.90;;;;;;4979246;28;20944;-77
2021/09/28 05:46:07;;;;;;;19.58;8.10;;;10.70;99.90;;;;;;4982729;28;20733;-76
2021/09/28 05:48:33;;;;;;;28.95;8.77;;;10.80;99.90;;;;;;4978271;28;20402;-75
2021/09/28 05:50:59;;;;;;;23.50;9.18;;;10.80;99.90;;;;;;4963022;28;20393;-76
2021/09/28 05:53:34;;;;;;;28.33;8.98;;;10.80;99.90;;;;;;4954794;28;20414;-75
2021/09/28 05:55:59;;;;;;;31.83;8.65;;;10.80;99.90;;;;;;4977270;28;20401;-75
2021/09/28 05:58:25;;;;;;;25.17;8.70;;;10.80;99.90;;;;;;4996384;28;20745;-74
2021/09/28 06:00:50;;;;;;;22.00;8.60;;;10.80;99.90;;;;;;4981520;28;20410;-74
2021/09/28 06:03:16;;;;;;;18.30;8.67;;;10.80;99.90;;;;;;4980759;28;20765;-74
2021/09/28 06:05:42;;;;;;;30.17;8.57;;;10.90;99.90;;;;;;4981154;28;20427;-74
2021/09/28 06:08:07;;;;;;;23.13;9.57;;;10.90;99.90;;;;;;4972258;28;20455;-75
2021/09/28 06:10:33;;;;;;;24.93;9.07;;;10.90;99.90;;;;;;4960858;28;20392;-76
2021/09/28 06:12:58;;;;;;;20.73;8.67;;;11.00;99.90;;;;;;4958484;28;21035;-76
2021/09/28 06:15:25;;;;;;;27.92;8.32;;;11.00;99.90;;;;;;4965874;28;20394;-76
2021/09/28 06:17:50;;;;;;;24.77;7.60;;;11.00;99.90;;;;;;4969343;28;20471;-76
2021/09/28 06:20:16;;;;;;;20.48;8.32;;;11.10;99.90;;;;;;4973217;28;20495;-75
2021/09/28 06:22:41;;;;;;;23.70;8.13;;;11.10;99.90;;;;;;4973284;28;20528;-76
2021/09/28 06:25:08;;;;;;;18.23;7.43;;;11.20;99.90;;;;;;4970388;28;20407;-77
2021/09/28 06:27:34;;;;;;;22.17;8.07;;;11.20;99.90;;;;;;4976687;28;20395;-80
2021/09/28 06:30:00;;;;;;;22.83;8.35;;;11.30;99.90;;;;;;4978521;28;20399;-76
2021/09/28 06:32:25;;;;;;;22.58;7.43;;;11.30;99.90;;;;;;4983243;28;20495;-77
2021/09/28 06:34:51;;;;;;;25.20;8.57;;;11.30;99.90;;;;;;4979158;28;20475;-78
2021/09/28 06:37:16;;;;;;;21.45;7.95;;;11.50;99.90;;;;;;4980223;28;20415;-79
2021/09/28 06:39:42;;;;;;;17.48;7.75;;;11.50;99.90;;;;;;4991519;28;20390;-79
2021/09/28 06:42:08;;;;;;;21.23;8.30;;;11.50;99.90;;;;;;4985727;28;20796;-79
2021/09/28 06:44:34;;;;;;;21.43;7.97;;;11.60;99.90;;;;;;4981598;28;20404;-76
2021/09/28 06:47:00;;;;;;;21.30;8.10;;;11.60;99.90;;;;;;4972597;28;20746;-78
2021/09/28 06:49:25;;;;;;;25.95;8.18;;;11.70;99.90;;;;;;4973002;28;20433;-79
2021/09/28 06:51:51;;;;;;;17.87;7.97;;;11.80;99.90;;;;;;4963203;28;20425;-79
2021/09/28 06:54:17;;;;;;;21.63;7.90;;;11.80;99.90;;;;;;4988413;28;20418;-77
2021/09/28 06:56:42;;;;;;;25.57;7.73;;;12.00;99.90;;;;;;4994279;28;20402;-77
2021/09/28 06:59:10;;;;;;;21.70;8.10;;;12.10;99.90;;;;;;4995505;28;20404;-77
2021/09/28 07:01:39;;;;;;;24.88;7.90;;;12.00;99.90;;;;;;4989528;28;20412;-77
2021/09/28 07:04:05;;;;;;;21.23;8.35;;;12.10;99.90;;;;;;4973872;28;20887;-76
2021/09/28 07:06:31;;;;;;;22.08;8.23;;;12.20;99.90;;;;;;4974457;28;20486;-75
2021/09/28 07:08:56;;;;;;;19.15;7.88;;;12.20;99.90;;;;;;4971321;28;20734;-76
2021/09/28 07:11:22;;;;;;;20.90;7.75;;;12.30;99.90;;;;;;4967473;28;20431;-76
2021/09/28 07:13:48;;;;;;;16.60;8.57;;;12.40;99.90;;;;;;4988741;28;20538;-78
2021/09/28 07:16:14;;;;;;;16.95;8.10;;;12.50;99.90;;;;;;4976874;28;20431;-77
2021/09/28 07:18:41;;;;;;;23.30;8.10;;;12.70;99.90;;;;;;4976408;28;20422;-77
2021/09/28 07:21:07;;;;;;;24.80;8.57;;;12.80;99.90;;;;;;4980352;28;20395;-77
2021/09/28 07:23:32;;;;;;;19.00;7.78;;;12.70;99.90;;;;;;4966291;28;20840;-78
2021/09/28 07:25:58;;;;;;;20.90;8.90;;;12.70;99.90;;;;;;4982895;28;20405;-76
2021/09/28 07:28:24;;;;;;;23.52;7.60;;;12.80;99.90;;;;;;4964772;28;20405;-77
2021/09/28 07:30:50;;;;;;;32.17;10.30;;;12.80;99.90;;;;;;4965407;28;20579;-76
2021/09/28 07:33:16;;;;;;;20.77;8.03;;;12.90;99.90;;;;;;4964871;28;20413;-77
2021/09/28 07:35:44;;;;;;;24.83;8.57;;;13.00;99.90;;;;;;4969322;28;20403;-75
2021/09/28 07:38:14;;;;;;;23.85;8.40;;;13.10;99.90;;;;;;4969487;28;20393;-76
2021/09/28 07:40:43;;;;;;;23.30;8.30;;;13.10;99.90;;;;;;4956704;28;20895;-76
2021/09/28 07:43:09;;;;;;;22.00;7.77;;;13.20;98.50;;;;;;4972065;28;20530;-75
2021/09/28 07:45:36;;;;;;;15.77;8.55;;;13.30;99.90;;;;;;4972856;28;20897;-76
2021/09/28 07:48:02;;;;;;;21.13;9.13;;;13.40;99.90;;;;;;4974113;28;20905;-76
2021/09/28 07:50:27;;;;;;;25.37;8.83;;;13.50;99.90;;;;;;4981844;28;20438;-74
2021/09/28 07:52:53;;;;;;;19.60;7.80;;;13.60;99.90;;;;;;4966399;28;20418;-76
2021/09/28 07:55:19;;;;;;;20.30;8.23;;;13.70;99.40;;;;;;4974414;28;20407;-76
2021/09/28 07:57:44;;;;;;;20.60;7.30;;;13.70;92.80;;;;;;4976947;28;20419;-77
2021/09/28 08:00:10;;;;;;;26.37;8.33;;;13.80;95.10;;;;;;4973312;28;20438;-77
2021/09/28 08:02:40;;;;;;;23.08;7.53;;;13.80;94.60;;;;;;4974500;28;20415;-75
2021/09/28 08:05:08;;;;;;;14.52;6.60;;;13.90;91.00;;;;;;4970159;28;20426;-75
2021/09/28 08:07:34;;;;;;;17.73;7.70;;;14.00;84.90;;;;;;4968873;28;20486;-77
2021/09/28 08:09:59;;;;;;;22.98;7.30;;;14.00;85.20;;;;;;4970997;28;20961;-77
2021/09/28 08:12:25;;;;;;;49.90;9.30;;;14.10;81.90;;;;;;4969994;28;20414;-76
2021/09/28 08:14:51;;;;;;;18.52;7.20;;;14.00;80.20;;;;;;4971716;28;20491;-77
2021/09/28 08:17:17;;;;;;;16.48;6.53;;;14.10;83.10;;;;;;4964459;28;20504;-75
2021/09/28 08:19:43;;;;;;;25.95;7.13;;;14.10;77.30;;;;;;4969168;28;20463;-76
2021/09/28 08:22:12;;;;;;;17.75;7.18;;;14.10;78.40;;;;;;4978986;28;20422;-77
2021/09/28 08:24:43;;;;;;;19.23;6.82;;;14.20;80.70;;;;;;4983203;28;20412;-76
2021/09/28 08:29:56;;;;;;;28.55;6.13;;;14.40;75.40;;;;;;4998982;28;20391;-77
2021/09/28 08:32:22;;;;;;;19.38;6.10;;;14.60;74.30;;;;;;4976627;28;20414;-75
2021/09/28 08:34:48;;;;;;;16.73;6.18;;;14.70;73.60;;;;;;4971178;28;20426;-76
2021/09/28 08:37:14;;;;;;;16.10;6.20;;;14.70;71.50;;;;;;4968386;28;20394;-73
2021/09/28 08:39:40;;;;;;;17.38;6.32;;;14.70;70.60;;;;;;4964887;28;20403;-74
2021/09/28 08:42:05;;;;;;;19.15;6.30;;;14.80;71.00;;;;;;4966520;28;20412;-76
2021/09/28 08:44:31;;;;;;;18.65;6.40;;;14.80;68.40;;;;;;4955001;28;20420;-77
2021/09/28 08:46:57;;;;;;;20.02;6.65;;;15.00;67.40;;;;;;4955770;28;20416;-74
2021/09/28 08:49:23;;;;;;;14.45;5.80;;;15.10;65.50;;;;;;4965242;28;20405;-75
2021/09/28 08:51:50;;;;;;;26.33;6.10;;;15.20;66.20;;;;;;4964009;28;20415;-76
2021/09/28 08:54:17;;;;;;;17.10;6.38;;;15.40;62.90;;;;;;4971801;28;20409;-75
2021/09/28 08:56:44;;;;;;;19.48;5.57;;;15.50;61.70;;;;;;4971190;28;20952;-76
2021/09/28 08:59:13;;;;;;;17.88;5.10;;;15.60;59.00;;;;;;4970489;28;20471;-76
2021/09/28 09:02:02;;;;;;;14.27;4.95;;;15.60;55.00;;;;;;4970826;28;20395;-75
2021/09/28 09:04:28;;;;;;;18.83;5.28;;;15.60;58.50;;;;;;4968918;28;20491;-75
2021/09/28 09:06:55;;;;;;;22.73;6.22;;;15.90;54.70;;;;;;4970646;28;20400;-74
2021/09/28 09:09:21;;;;;;;14.60;5.75;;;16.00;57.20;;;;;;4962619;28;20417;-73
2021/09/28 09:11:50;;;;;;;11.33;4.20;;;16.00;55.10;;;;;;4971045;28;20523;-75
2021/09/28 09:14:26;;;;;;;14.38;5.15;;;16.10;54.60;;;;;;4970601;28;20567;-75
2021/09/28 09:16:55;;;;;;;15.77;6.03;;;16.20;52.10;;;;;;4971100;28;20882;-76
2021/09/28 09:19:27;;;;;;;17.45;5.40;;;16.30;50.80;;;;;;4970107;28;20407;-74
2021/09/28 09:21:55;;;;;;;14.15;5.30;;;16.40;51.10;;;;;;4971590;28;20401;-76
2021/09/28 09:24:42;;;;;;;21.65;5.88;;;16.50;48.50;;;;;;4974558;28;20403;-75
2021/09/28 09:27:13;;;;;;;15.10;4.75;;;16.70;48.30;;;;;;4970440;28;20409;-75
2021/09/28 09:29:40;;;;;;;14.77;4.28;;;16.70;44.80;;;;;;4971783;28;20400;-75
2021/09/28 09:32:06;;;;;;;14.43;4.70;;;16.80;45.00;;;;;;4973288;28;20850;-76
2021/09/28 09:34:31;;;;;;;16.58;4.30;;;16.90;45.60;;;;;;4962853;28;20412;-75
2021/09/28 09:37:05;;;;;;;21.65;4.15;;;17.20;43.40;;;;;;4974393;28;20406;-76
2021/09/28 09:39:48;;;;;;;15.73;3.97;;;17.20;41.60;;;;;;4974225;28;20890;-74
2021/09/28 09:42:14;;;;;;;12.35;4.68;;;17.30;39.70;;;;;;4965688;28;20427;-76
2021/09/28 09:44:41;;;;;;;15.80;4.55;;;17.50;39.20;;;;;;4974473;28;20408;-76
2021/09/28 09:47:23;;;;;;;18.45;4.32;;;17.50;38.30;;;;;;4973866;28;20503;-75
2021/09/28 09:49:49;;;;;;;13.05;4.43;;;17.50;40.00;;;;;;4970922;28;20442;-76
2021/09/28 09:52:15;;;;;;;18.40;5.17;;;17.60;40.50;;;;;;4972176;28;20443;-77
2021/09/28 09:54:43;;;;;;;17.63;4.93;;;17.70;39.50;;;;;;4974281;28;20447;-75
2021/09/28 09:57:13;;;;;;;15.33;4.50;;;17.80;38.70;;;;;;4981245;28;20410;-77
2021/09/28 09:59:40;;;;;;;21.20;4.70;;;18.00;37.30;;;;;;4971658;28;20431;-75
2021/09/28 10:02:08;;;;;;;16.83;4.40;;;18.00;35.10;;;;;;4973859;28;20408;-77
2021/09/28 10:04:34;;;;;;;14.68;4.50;;;18.10;36.80;;;;;;4977578;28;20416;-76
2021/09/28 10:07:02;;;;;;;14.30;4.03;;;18.20;34.70;;;;;;4974120;28;20408;-77
2021/09/28 10:09:35;;;;;;;14.30;3.90;;;18.20;35.80;;;;;;4976372;28;20799;-76
2021/09/28 10:12:03;;;;;;;12.98;4.15;;;18.40;34.80;;;;;;4971882;28;20412;-76
2021/09/28 10:14:45;;;;;;;13.10;4.30;;;18.60;33.90;;;;;;4965898;28;20473;-76
2021/09/28 10:17:17;;;;;;;11.20;3.67;;;18.80;33.20;;;;;;4971976;28;20396;-75
2021/09/28 10:19:45;;;;;;;14.63;3.67;;;19.00;32.90;;;;;;4968765;28;20761;-73
2021/09/28 10:22:39;;;;;;;17.02;4.32;;;19.10;31.80;;;;;;4968052;28;20995;-74
2021/09/28 10:28:06;;;;;;;12.50;3.47;;;19.20;31.90;;;;;;4973068;28;20463;-76
2021/09/28 10:30:34;;;;;;;19.63;7.20;;;19.30;31.40;;;;;;4955347;28;20410;-77
2021/09/28 10:33:01;;;;;;;14.32;4.40;;;19.50;31.40;;;;;;4966606;28;20694;-78
2021/09/28 10:35:28;;;;;;;23.90;5.03;;;19.50;31.20;;;;;;4978103;28;20412;-75
2021/09/28 10:38:01;;;;;;;15.20;4.53;;;19.50;31.20;;;;;;4979053;28;20432;-75
2021/09/28 10:40:30;;;;;;;15.43;4.25;;;19.50;30.90;;;;;;4977453;28;20400;-74
2021/09/28 10:42:56;;;;;;;17.27;4.80;;;19.60;30.70;;;;;;4971893;28;20507;-75
2021/09/28 10:45:33;;;;;;;18.77;4.30;;;19.50;30.90;;;;;;4968895;28;20841;-75
2021/09/28 10:48:03;;;;;;;18.75;4.90;;;19.50;30.00;;;;;;4965769;28;20395;-74
2021/09/28 10:50:37;;;;;;;39.65;11.52;;;19.50;29.80;;;;;;4966122;28;20437;-74
2021/09/28 10:53:19;;;;;;;22.35;4.93;;;19.80;29.80;;;;;;4966174;28;20414;-74
2021/09/28 10:56:00;;;;;;;12.05;4.40;;;19.90;29.00;;;;;;4968253;28;20397;-76
2021/09/28 10:58:28;;;;;;;16.17;4.72;;;19.90;28.60;;;;;;4971051;28;20496;-76
2021/09/28 11:00:56;;;;;;;17.10;4.25;;;19.80;28.50;;;;;;4982096;28;20439;-74
2021/09/28 11:03:40;;;;;;;16.67;4.30;;;19.80;28.90;;;;;;4976227;28;20404;-76
2021/09/28 11:06:07;;;;;;;12.73;3.70;;;19.90;28.10;;;;;;4970471;28;20501;-77
2021/09/28 11:08:36;;;;;;;11.95;3.92;;;20.00;28.10;;;;;;4978435;28;20396;-79
2021/09/28 11:11:04;;;;;;;15.60;4.18;;;19.90;27.70;;;;;;4968590;28;20490;-76
2021/09/28 11:13:32;;;;;;;10.35;3.42;;;19.80;26.50;;;;;;4968713;28;20408;-75
2021/09/28 11:15:58;;;;;;;13.30;3.78;;;20.00;27.30;;;;;;4974534;28;20387;-76
2021/09/28 11:18:24;;;;;;;16.30;4.60;;;20.10;27.20;;;;;;4965696;28;20519;-76
2021/09/28 11:20:50;;;;;;;17.20;4.53;;;20.20;27.70;;;;;;4955431;28;20440;-75
2021/09/28 11:23:16;;;;;;;14.63;3.80;;;20.20;26.60;;;;;;4974733;28;20482;-76
2021/09/28 11:25:51;;;;;;;17.00;3.47;;;20.20;25.90;;;;;;4975613;28;20814;-76
2021/09/28 11:28:19;;;;;;;9.57;3.30;;;20.30;25.20;;;;;;4977625;28;20407;-76
2021/09/28 11:31:05;;;;;;;11.10;3.40;;;20.30;25.10;;;;;;4975683;28;20400;-78
2021/09/28 11:33:40;;;;;;;15.48;3.10;;;20.20;24.70;;;;;;4958838;28;20501;-75
2021/09/28 11:36:12;;;;;;;9.37;3.37;;;20.10;25.30;;;;;;4962920;28;20410;-76
2021/09/28 11:38:41;;;;;;;17.15;3.45;;;20.20;25.00;;;;;;4963507;28;20398;-74
2021/09/28 11:41:17;;;;;;;13.40;3.60;;;20.30;25.00;;;;;;4962413;28;20491;-75
2021/09/28 11:43:49;;;;;;;13.20;3.40;;;20.40;23.60;;;;;;4974161;28;20443;-76
2021/09/28 11:46:17;;;;;;;17.02;4.20;;;20.50;22.70;;;;;;4972461;28;20451;-75
2021/09/28 11:48:58;;;;;;;15.00;3.80;;;20.50;23.20;;;;;;4974914;28;20431;-77
2021/09/28 11:51:30;;;;;;;12.45;3.15;;;20.50;23.00;;;;;;4959809;28;20485;-77
2021/09/28 11:54:01;;;;;;;11.30;3.28;;;20.50;22.30;;;;;;4972403;28;20404;-76
2021/09/28 11:56:29;;;;;;;10.23;3.50;;;20.60;21.40;;;;;;4981358;28;20429;-76
2021/09/28 11:58:55;;;;;;;14.10;3.58;;;20.70;21.70;;;;;;4973517;28;20423;-76
2021/09/28 12:01:23;;;;;;;13.17;3.50;;;20.80;22.10;;;;;;4968855;28;20458;-76
2021/09/28 12:07:57;;;;;;;10.98;3.50;;;20.80;21.30;;;;;;4967107;28;20451;-77
2021/09/28 12:10:19;;;;;;;12.03;3.63;;;20.80;22.10;;;;;;4971566;28;20398;-76
2021/09/28 12:12:45;;;;;;;12.13;3.78;;;21.00;20.90;;;;;;4975270;28;20412;-78
2021/09/28 12:15:12;;;;;;;11.43;3.90;;;21.20;21.10;;;;;;4985116;28;20443;-77
2021/09/28 12:17:41;;;;;;;14.23;4.53;;;21.10;20.90;;;;;;4972841;28;20403;-74
2021/09/28 12:20:19;;;;;;;10.10;3.78;;;21.10;20.70;;;;;;4971552;28;20396;-76
2021/09/28 12:22:50;;;;;;;12.43;4.15;;;21.10;20.70;;;;;;4973525;28;20457;-76
2021/09/28 12:25:24;;;;;;;8.50;3.00;;;21.10;20.80;;;;;;4974116;28;20476;-76
2021/09/28 12:27:59;;;;;;;12.52;3.78;;;21.00;20.10;;;;;;4974431;28;20420;-75
2021/09/28 12:30:27;;;;;;;14.07;3.30;;;21.00;20.60;;;;;;4974693;28;20387;-76
2021/09/28 12:32:54;;;;;;;20.38;3.65;;;20.90;21.30;;;;;;4971230;28;20412;-74
2021/09/28 12:35:32;;;;;;;10.95;3.97;;;21.10;22.00;;;;;;4973044;28;20495;-75
2021/09/28 12:38:03;;;;;;;15.90;4.28;;;21.00;20.80;;;;;;4972915;28;20902;-76
2021/09/28 12:40:32;;;;;;;17.13;4.10;;;20.90;20.90;;;;;;4972260;28;20403;-75
2021/09/28 12:43:06;;;;;;;12.45;3.40;;;21.00;21.20;;;;;;4973760;28;20873;-75
2021/09/28 12:46:04;;;;;;;13.47;3.70;;;21.00;21.30;;;;;;4974218;28;20415;-77